sensor_id;sensor_type;location;lat;lon;timestamp;pressure;altitude;pressure_sealevel;temperature;humidity
50364;BME280;36272;59.400;17.982;2023-12-29T00:01:03;99354.91;;;1.93;98.72
50364;BME280;36272;59.400;17.982;2023-12-29T00:06:05;99337.63;;;1.90;99.02
50364;BME280;36272;59.400;17.982;2023-12-29T00:11:07;99339.25;;;1.91;98.97
50364;BME280;36272;59.400;17.982;2023-12-29T00:16:08;99335.44;;;1.94;98.70
50364;BME280;36272;59.400;17.982;2023-12-29T00:21:10;99333.97;;;1.91;98.87
50364;BME280;36272;59.400;17.982;2023-12-29T00:26:12;99314.50;;;1.92;98.85
50364;BME280;36272;59.400;17.982;2023-12-29T00:31:14;99298.50;;;1.94;98.96
50364;BME280;36272;59.400;17.982;2023-12-29T00:36:19;99288.97;;;1.93;98.97
50364;BME280;36272;59.400;17.982;2023-12-29T00:41:21;99281.25;;;1.91;98.90
50364;BME280;36272;59.400;17.982;2023-12-29T00:46:23;99273.53;;;1.90;98.80
50364;BME280;36272;59.400;17.982;2023-12-29T00:51:24;99280.00;;;1.87;98.90
50364;BME280;36272;59.400;17.982;2023-12-29T00:56:26;99283.47;;;1.88;98.73
50364;BME280;36272;59.400;17.982;2023-12-29T01:01:27;99272.31;;;1.86;99.00
50364;BME280;36272;59.400;17.982;2023-12-29T01:06:29;99260.53;;;1.88;98.91
50364;BME280;36272;59.400;17.982;2023-12-29T01:11:31;99250.19;;;1.87;98.80
50364;BME280;36272;59.400;17.982;2023-12-29T01:16:37;99243.91;;;1.88;99.15
50364;BME280;36272;59.400;17.982;2023-12-29T01:21:39;99224.22;;;1.90;98.72
50364;BME280;36272;59.400;17.982;2023-12-29T01:26:40;99211.03;;;1.90;98.84
50364;BME280;36272;59.400;17.982;2023-12-29T01:31:42;99209.03;;;1.92;98.97
50364;BME280;36272;59.400;17.982;2023-12-29T01:36:44;99208.22;;;1.92;98.77
50364;BME280;36272;59.400;17.982;2023-12-29T01:41:45;99202.13;;;1.91;98.73
50364;BME280;36272;59.400;17.982;2023-12-29T01:46:51;99194.44;;;1.90;99.05
50364;BME280;36272;59.400;17.982;2023-12-29T01:51:57;99197.47;;;1.87;98.85
50364;BME280;36272;59.400;17.982;2023-12-29T01:57:00;99201.50;;;1.89;99.04
50364;BME280;36272;59.400;17.982;2023-12-29T02:02:02;99207.78;;;1.88;98.74
50364;BME280;36272;59.400;17.982;2023-12-29T02:07:04;99191.97;;;1.88;99.13
50364;BME280;36272;59.400;17.982;2023-12-29T02:12:06;99163.78;;;1.89;98.94
50364;BME280;36272;59.400;17.982;2023-12-29T02:17:26;99145.34;;;1.89;99.17
50364;BME280;36272;59.400;17.982;2023-12-29T02:22:28;99144.94;;;1.92;98.77
50364;BME280;36272;59.400;17.982;2023-12-29T02:27:49;99122.22;;;1.91;99.35
50364;BME280;36272;59.400;17.982;2023-12-29T02:33:00;99120.59;;;1.90;99.00
50364;BME280;36272;59.400;17.982;2023-12-29T02:38:02;99127.47;;;1.91;99.05
50364;BME280;36272;59.400;17.982;2023-12-29T02:43:09;99122.22;;;1.91;98.99
50364;BME280;36272;59.400;17.982;2023-12-29T02:48:11;99122.22;;;1.91;98.88
50364;BME280;36272;59.400;17.982;2023-12-29T02:53:12;99107.41;;;1.90;98.86
50364;BME280;36272;59.400;17.982;2023-12-29T02:58:14;99114.06;;;1.92;99.16
50364;BME280;36272;59.400;17.982;2023-12-29T03:03:21;99087.94;;;1.91;99.19
50364;BME280;36272;59.400;17.982;2023-12-29T03:08:22;99088.13;;;1.96;98.83
50364;BME280;36272;59.400;17.982;2023-12-29T03:13:29;99054.84;;;1.95;99.02
50364;BME280;36272;59.400;17.982;2023-12-29T03:18:30;99052.00;;;1.97;98.60
50364;BME280;36272;59.400;17.982;2023-12-29T03:23:42;99031.72;;;1.97;99.01
50364;BME280;36272;59.400;17.982;2023-12-29T03:28:44;99037.00;;;1.97;98.82
50364;BME280;36272;59.400;17.982;2023-12-29T03:33:46;99017.53;;;1.98;98.84
50364;BME280;36272;59.400;17.982;2023-12-29T03:38:48;99004.53;;;1.97;98.59
50364;BME280;36272;59.400;17.982;2023-12-29T03:43:54;98991.16;;;1.98;98.96
50364;BME280;36272;59.400;17.982;2023-12-29T03:48:57;98993.19;;;1.96;98.85
50364;BME280;36272;59.400;17.982;2023-12-29T03:54:09;98968.44;;;1.97;99.00
50364;BME280;36272;59.400;17.982;2023-12-29T03:59:11;98971.06;;;1.97;98.85
50364;BME280;36272;59.400;17.982;2023-12-29T04:04:17;98960.50;;;1.97;98.80
50364;BME280;36272;59.400;17.982;2023-12-29T04:09:19;98956.84;;;1.98;98.82
50364;BME280;36272;59.400;17.982;2023-12-29T04:14:21;98937.56;;;1.98;98.94
50364;BME280;36272;59.400;17.982;2023-12-29T04:19:23;98931.69;;;1.96;98.82
50364;BME280;36272;59.400;17.982;2023-12-29T04:24:25;98923.59;;;1.97;98.72
50364;BME280;36272;59.400;17.982;2023-12-29T04:29:26;98922.56;;;1.98;98.65
50364;BME280;36272;59.400;17.982;2023-12-29T04:34:33;98899.84;;;1.97;98.96
50364;BME280;36272;59.400;17.982;2023-12-29T04:39:34;98894.59;;;1.97;98.87
50364;BME280;36272;59.400;17.982;2023-12-29T04:44:36;98879.78;;;1.96;98.91
50364;BME280;36272;59.400;17.982;2023-12-29T04:49:38;98878.94;;;1.96;98.87
50364;BME280;36272;59.400;17.982;2023-12-29T04:54:45;98846.28;;;1.97;99.24
50364;BME280;36272;59.400;17.982;2023-12-29T04:59:49;98830.69;;;1.95;98.97
50364;BME280;36272;59.400;17.982;2023-12-29T05:04:50;98823.38;;;1.97;99.17
50364;BME280;36272;59.400;17.982;2023-12-29T05:09:52;98799.41;;;1.99;98.76
50364;BME280;36272;59.400;17.982;2023-12-29T05:14:54;98792.28;;;1.99;98.93
50364;BME280;36272;59.400;17.982;2023-12-29T05:19:55;98790.47;;;2.00;98.87
50364;BME280;36272;59.400;17.982;2023-12-29T05:24:57;98780.72;;;2.00;98.88
50364;BME280;36272;59.400;17.982;2023-12-29T05:30:01;98770.19;;;2.00;98.89
50364;BME280;36272;59.400;17.982;2023-12-29T05:35:08;98754.59;;;1.99;99.08
50364;BME280;36272;59.400;17.982;2023-12-29T05:40:11;98754.16;;;2.02;98.98
50364;BME280;36272;59.400;17.982;2023-12-29T05:45:16;98740.16;;;2.01;98.90
50364;BME280;36272;59.400;17.982;2023-12-29T05:50:17;98735.47;;;2.03;98.49
50364;BME280;36272;59.400;17.982;2023-12-29T05:55:19;98733.84;;;2.02;98.68
50364;BME280;36272;59.400;17.982;2023-12-29T06:00:21;98722.69;;;2.00;99.04
50364;BME280;36272;59.400;17.982;2023-12-29T06:05:22;98710.53;;;1.99;98.85
50364;BME280;36272;59.400;17.982;2023-12-29T06:10:24;98694.94;;;1.98;98.65
50364;BME280;36272;59.400;17.982;2023-12-29T06:15:26;98691.50;;;1.97;99.01
50364;BME280;36272;59.400;17.982;2023-12-29T06:20:30;98669.22;;;1.93;99.14
50364;BME280;36272;59.400;17.982;2023-12-29T06:25:37;98657.06;;;1.92;99.32
50364;BME280;36272;59.400;17.982;2023-12-29T06:30:40;98667.81;;;1.90;99.28
50364;BME280;36272;59.400;17.982;2023-12-29T06:35:42;98665.56;;;1.94;99.16
50364;BME280;36272;59.400;17.982;2023-12-29T06:40:44;98660.44;;;1.99;98.92
50364;BME280;36272;59.400;17.982;2023-12-29T06:45:45;98665.16;;;1.97;99.16
50364;BME280;36272;59.400;17.982;2023-12-29T06:50:47;98668.34;;;1.99;99.05
50364;BME280;36272;59.400;17.982;2023-12-29T06:55:49;98669.75;;;2.02;99.05
50364;BME280;36272;59.400;17.982;2023-12-29T07:00:50;98667.91;;;2.02;98.87
50364;BME280;36272;59.400;17.982;2023-12-29T07:05:52;98665.88;;;2.04;98.82
50364;BME280;36272;59.400;17.982;2023-12-29T07:10:54;98663.03;;;2.06;98.96
50364;BME280;36272;59.400;17.982;2023-12-29T07:15:55;98661.78;;;2.08;98.83
50364;BME280;36272;59.400;17.982;2023-12-29T07:20:57;98669.50;;;2.10;98.73
50364;BME280;36272;59.400;17.982;2023-12-29T07:25:59;98658.94;;;2.10;98.67
50364;BME280;36272;59.400;17.982;2023-12-29T07:31:03;98652.84;;;2.10;98.92
50364;BME280;36272;59.400;17.982;2023-12-29T07:36:05;98654.47;;;2.11;98.74
50364;BME280;36272;59.400;17.982;2023-12-29T07:41:07;98662.97;;;2.13;98.56
50364;BME280;36272;59.400;17.982;2023-12-29T07:46:23;98647.38;;;2.11;98.95
50364;BME280;36272;59.400;17.982;2023-12-29T07:51:25;98660.91;;;2.15;98.71
50364;BME280;36272;59.400;17.982;2023-12-29T07:56:26;98663.34;;;2.16;98.74
50364;BME280;36272;59.400;17.982;2023-12-29T08:01:28;98658.88;;;2.17;98.51
50364;BME280;36272;59.400;17.982;2023-12-29T08:06:30;98655.00;;;2.19;98.30
50364;BME280;36272;59.400;17.982;2023-12-29T08:11:31;98659.63;;;2.24;98.57
50364;BME280;36272;59.400;17.982;2023-12-29T08:16:37;98652.06;;;2.28;98.84
50364;BME280;36272;59.400;17.982;2023-12-29T08:21:39;98651.00;;;2.35;98.79
50364;BME280;36272;59.400;17.982;2023-12-29T08:26:45;98644.84;;;2.42;98.98
50364;BME280;36272;59.400;17.982;2023-12-29T08:31:49;98665.06;;;2.48;98.88
50364;BME280;36272;59.400;17.982;2023-12-29T08:36:54;98656.84;;;2.56;98.77
50364;BME280;36272;59.400;17.982;2023-12-29T08:41:56;98677.09;;;2.62;99.32
50364;BME280;36272;59.400;17.982;2023-12-29T08:46:59;98652.31;;;2.63;98.99
50364;BME280;36272;59.400;17.982;2023-12-29T08:52:01;98669.84;;;2.76;99.40
50364;BME280;36272;59.400;17.982;2023-12-29T08:57:03;98676.00;;;2.89;99.31
50364;BME280;36272;59.400;17.982;2023-12-29T09:02:06;98668.81;;;2.96;99.08
50364;BME280;36272;59.400;17.982;2023-12-29T09:07:07;98689.50;;;2.99;99.10
50364;BME280;36272;59.400;17.982;2023-12-29T09:12:09;98698.34;;;3.05;99.02
50364;BME280;36272;59.400;17.982;2023-12-29T09:17:11;98696.88;;;3.09;98.86
50364;BME280;36272;59.400;17.982;2023-12-29T09:22:12;98710.84;;;3.16;98.87
50364;BME280;36272;59.400;17.982;2023-12-29T09:27:14;98713.63;;;3.21;98.90
50364;BME280;36272;59.400;17.982;2023-12-29T09:32:15;98717.19;;;3.27;98.89
50364;BME280;36272;59.400;17.982;2023-12-29T09:37:17;98723.41;;;3.33;98.77
50364;BME280;36272;59.400;17.982;2023-12-29T09:42:22;98709.75;;;3.36;98.71
50364;BME280;36272;59.400;17.982;2023-12-29T09:47:28;98716.66;;;3.37;98.70
50364;BME280;36272;59.400;17.982;2023-12-29T09:52:33;98718.84;;;3.40;98.82
50364;BME280;36272;59.400;17.982;2023-12-29T09:57:35;98733.25;;;3.44;98.84
50364;BME280;36272;59.400;17.982;2023-12-29T10:02:37;98720.59;;;3.46;98.56
50364;BME280;36272;59.400;17.982;2023-12-29T10:07:40;98726.47;;;3.48;98.44
50364;BME280;36272;59.400;17.982;2023-12-29T10:12:44;98729.50;;;3.52;98.53
50364;BME280;36272;59.400;17.982;2023-12-29T10:17:58;98714.44;;;3.52;98.45
50364;BME280;36272;59.400;17.982;2023-12-29T10:23:17;98725.81;;;3.53;98.64
50364;BME280;36272;59.400;17.982;2023-12-29T10:28:20;98721.91;;;3.55;98.61
50364;BME280;36272;59.400;17.982;2023-12-29T10:33:22;98738.34;;;3.57;98.24
50364;BME280;36272;59.400;17.982;2023-12-29T10:38:25;98741.34;;;3.61;98.47
50364;BME280;36272;59.400;17.982;2023-12-29T10:43:29;98739.28;;;3.63;98.07
50364;BME280;36272;59.400;17.982;2023-12-29T10:48:30;98744.56;;;3.63;98.34
50364;BME280;36272;59.400;17.982;2023-12-29T10:53:33;98731.34;;;3.63;97.99
50364;BME280;36272;59.400;17.982;2023-12-29T10:58:35;98741.72;;;3.65;98.40
50364;BME280;36272;59.400;17.982;2023-12-29T11:03:39;98741.47;;;3.66;97.99
50364;BME280;36272;59.400;17.982;2023-12-29T11:08:43;98726.44;;;3.67;98.31
50364;BME280;36272;59.400;17.982;2023-12-29T11:13:46;98721.16;;;3.67;98.21
50364;BME280;36272;59.400;17.982;2023-12-29T11:18:49;98722.66;;;3.75;98.15
50364;BME280;36272;59.400;17.982;2023-12-29T11:23:52;98733.94;;;3.82;98.16
50364;BME280;36272;59.400;17.982;2023-12-29T11:28:54;98736.16;;;3.85;97.98
50364;BME280;36272;59.400;17.982;2023-12-29T11:34:20;98730.41;;;3.88;98.54
50364;BME280;36272;59.400;17.982;2023-12-29T11:44:36;98738.47;;;3.93;98.18
50364;BME280;36272;59.400;17.982;2023-12-29T11:50:00;98718.09;;;3.94;98.69
50364;BME280;36272;59.400;17.982;2023-12-29T11:55:13;98726.63;;;3.96;98.48
50364;BME280;36272;59.400;17.982;2023-12-29T12:00:19;98735.13;;;3.98;98.36
50364;BME280;36272;59.400;17.982;2023-12-29T12:05:53;98721.47;;;4.01;99.17
50364;BME280;36272;59.400;17.982;2023-12-29T12:16:50;98725.03;;;4.07;98.86
50364;BME280;36272;59.400;17.982;2023-12-29T12:21:53;98732.75;;;4.08;98.65
50364;BME280;36272;59.400;17.982;2023-12-29T12:26:56;98735.16;;;4.10;98.56
50364;BME280;36272;59.400;17.982;2023-12-29T12:31:57;98740.44;;;4.10;98.77
50364;BME280;36272;59.400;17.982;2023-12-29T12:36:59;98739.19;;;4.12;98.58
50364;BME280;36272;59.400;17.982;2023-12-29T12:42:03;98732.88;;;4.13;98.48
50364;BME280;36272;59.400;17.982;2023-12-29T12:47:10;98717.00;;;4.13;98.82
50364;BME280;36272;59.400;17.982;2023-12-29T12:52:16;98721.25;;;4.14;98.76
50364;BME280;36272;59.400;17.982;2023-12-29T12:57:19;98711.47;;;4.15;98.76
50364;BME280;36272;59.400;17.982;2023-12-29T13:02:22;98703.78;;;4.13;98.59
50364;BME280;36272;59.400;17.982;2023-12-29T13:07:24;98718.03;;;4.12;98.74
50364;BME280;36272;59.400;17.982;2023-12-29T13:12:26;98724.56;;;4.10;98.68
50364;BME280;36272;59.400;17.982;2023-12-29T13:17:28;98726.44;;;4.09;98.80
50364;BME280;36272;59.400;17.982;2023-12-29T13:22:30;98722.16;;;4.08;98.81
50364;BME280;36272;59.400;17.982;2023-12-29T13:27:31;98720.31;;;4.09;98.88
50364;BME280;36272;59.400;17.982;2023-12-29T13:32:33;98719.53;;;4.08;98.67
50364;BME280;36272;59.400;17.982;2023-12-29T13:42:57;98711.22;;;4.05;98.57
50364;BME280;36272;59.400;17.982;2023-12-29T13:48:01;98718.34;;;4.04;98.46
50364;BME280;36272;59.400;17.982;2023-12-29T13:53:03;98738.94;;;4.02;98.55
50364;BME280;36272;59.400;17.982;2023-12-29T13:58:09;98716.16;;;4.01;98.63
50364;BME280;36272;59.400;17.982;2023-12-29T14:03:27;98720.63;;;4.00;98.73
50364;BME280;36272;59.400;17.982;2023-12-29T14:08:44;98726.16;;;3.99;98.47
50364;BME280;36272;59.400;17.982;2023-12-29T14:13:47;98733.53;;;3.97;98.29
50364;BME280;36272;59.400;17.982;2023-12-29T14:18:55;98745.97;;;3.96;98.23
50364;BME280;36272;59.400;17.982;2023-12-29T14:24:11;98726.28;;;3.92;98.91
50364;BME280;36272;59.400;17.982;2023-12-29T14:29:13;98741.13;;;3.93;98.26
50364;BME280;36272;59.400;17.982;2023-12-29T14:34:15;98747.06;;;3.89;98.25
50364;BME280;36272;59.400;17.982;2023-12-29T14:39:16;98739.59;;;3.85;98.21
50364;BME280;36272;59.400;17.982;2023-12-29T14:50:34;98734.84;;;3.76;98.11
50364;BME280;36272;59.400;17.982;2023-12-29T14:55:37;98723.94;;;3.72;98.03
50364;BME280;36272;59.400;17.982;2023-12-29T15:00:38;98740.94;;;3.76;98.28
50364;BME280;36272;59.400;17.982;2023-12-29T15:05:42;98721.16;;;3.67;98.15
50364;BME280;36272;59.400;17.982;2023-12-29T15:10:44;98728.06;;;3.68;97.95
50364;BME280;36272;59.400;17.982;2023-12-29T15:15:54;98720.69;;;3.70;98.03
50364;BME280;36272;59.400;17.982;2023-12-29T15:20:58;98726.44;;;3.67;98.17
50364;BME280;36272;59.400;17.982;2023-12-29T15:26:00;98728.84;;;3.68;98.17
50364;BME280;36272;59.400;17.982;2023-12-29T15:31:02;98722.19;;;3.66;98.11
50364;BME280;36272;59.400;17.982;2023-12-29T15:36:04;98729.28;;;3.65;98.12
50364;BME280;36272;59.400;17.982;2023-12-29T15:41:05;98736.44;;;3.65;98.03
50364;BME280;36272;59.400;17.982;2023-12-29T15:46:17;98720.00;;;3.63;98.33
50364;BME280;36272;59.400;17.982;2023-12-29T15:51:19;98741.13;;;3.63;98.55
50364;BME280;36272;59.400;17.982;2023-12-29T15:56:20;98738.50;;;3.63;97.97
50364;BME280;36272;59.400;17.982;2023-12-29T16:01:23;98721.47;;;3.59;98.22
50364;BME280;36272;59.400;17.982;2023-12-29T16:06:27;98724.09;;;3.59;98.19
50364;BME280;36272;59.400;17.982;2023-12-29T16:11:29;98733.06;;;3.57;97.91
50364;BME280;36272;59.400;17.982;2023-12-29T16:16:31;98739.16;;;3.58;98.28
50364;BME280;36272;59.400;17.982;2023-12-29T16:21:36;98720.28;;;3.54;98.39
50364;BME280;36272;59.400;17.982;2023-12-29T16:26:38;98732.47;;;3.55;98.32
50364;BME280;36272;59.400;17.982;2023-12-29T16:31:42;98732.47;;;3.55;98.23
50364;BME280;36272;59.400;17.982;2023-12-29T16:36:57;98713.63;;;3.52;98.55
50364;BME280;36272;59.400;17.982;2023-12-29T16:41:59;98723.97;;;3.53;98.07
50364;BME280;36272;59.400;17.982;2023-12-29T16:47:00;98735.00;;;3.50;98.20
50364;BME280;36272;59.400;17.982;2023-12-29T16:52:02;98732.34;;;3.50;98.38
50364;BME280;36272;59.400;17.982;2023-12-29T16:57:04;98741.31;;;3.49;98.39
50364;BME280;36272;59.400;17.982;2023-12-29T17:02:06;98739.69;;;3.48;98.39
50364;BME280;36272;59.400;17.982;2023-12-29T17:07:08;98743.38;;;3.47;98.26
50364;BME280;36272;59.400;17.982;2023-12-29T17:12:11;98743.59;;;3.46;98.39
50364;BME280;36272;59.400;17.982;2023-12-29T17:17:12;98748.06;;;3.45;98.44
50364;BME280;36272;59.400;17.982;2023-12-29T17:22:14;98751.75;;;3.44;98.31
50364;BME280;36272;59.400;17.982;2023-12-29T17:27:17;98744.63;;;3.45;98.16
50364;BME280;36272;59.400;17.982;2023-12-29T17:32:19;98745.88;;;3.42;98.37
50364;BME280;36272;59.400;17.982;2023-12-29T17:37:21;98753.00;;;3.41;98.37
50364;BME280;36272;59.400;17.982;2023-12-29T17:42:23;98744.25;;;3.41;98.26
50364;BME280;36272;59.400;17.982;2023-12-29T17:47:24;98749.97;;;3.38;98.29
50364;BME280;36272;59.400;17.982;2023-12-29T17:52:26;98757.31;;;3.36;98.38
50364;BME280;36272;59.400;17.982;2023-12-29T17:57:27;98759.19;;;3.35;98.53
50364;BME280;36272;59.400;17.982;2023-12-29T18:02:30;98761.59;;;3.37;98.46
50364;BME280;36272;59.400;17.982;2023-12-29T18:07:33;98758.34;;;3.35;98.50
50364;BME280;36272;59.400;17.982;2023-12-29T18:12:39;98747.78;;;3.35;98.55
50364;BME280;36272;59.400;17.982;2023-12-29T18:17:41;98749.63;;;3.34;98.40
50364;BME280;36272;59.400;17.982;2023-12-29T18:22:43;98757.78;;;3.33;98.14
50364;BME280;36272;59.400;17.982;2023-12-29T18:27:45;98753.50;;;3.32;98.45
50364;BME280;36272;59.400;17.982;2023-12-29T18:32:46;98757.22;;;3.31;98.46
50364;BME280;36272;59.400;17.982;2023-12-29T18:37:48;98764.31;;;3.30;98.50
50364;BME280;36272;59.400;17.982;2023-12-29T18:42:50;98767.19;;;3.29;98.60
50364;BME280;36272;59.400;17.982;2023-12-29T18:47:51;98774.09;;;3.30;98.38
50364;BME280;36272;59.400;17.982;2023-12-29T18:52:53;98768.81;;;3.30;98.35
50364;BME280;36272;59.400;17.982;2023-12-29T18:57:55;98764.56;;;3.29;98.69
50364;BME280;36272;59.400;17.982;2023-12-29T19:02:57;98764.31;;;3.30;98.51
50364;BME280;36272;59.400;17.982;2023-12-29T19:07:58;98779.38;;;3.30;98.33
50364;BME280;36272;59.400;17.982;2023-12-29T19:13:00;98769.38;;;3.32;98.47
50364;BME280;36272;59.400;17.982;2023-12-29T19:18:02;98768.81;;;3.30;98.50
50364;BME280;36272;59.400;17.982;2023-12-29T19:23:07;98763.59;;;3.41;98.58
50364;BME280;36272;59.400;17.982;2023-12-29T19:28:09;98778.78;;;3.27;98.41
50364;BME280;36272;59.400;17.982;2023-12-29T19:33:11;98779.22;;;3.24;98.23
50364;BME280;36272;59.400;17.982;2023-12-29T19:38:12;98790.00;;;3.23;98.30
50364;BME280;36272;59.400;17.982;2023-12-29T19:43:14;98772.53;;;3.22;98.50
50364;BME280;36272;59.400;17.982;2023-12-29T19:48:16;98787.16;;;3.24;98.37
50364;BME280;36272;59.400;17.982;2023-12-29T19:53:18;98780.03;;;3.25;98.64
50364;BME280;36272;59.400;17.982;2023-12-29T19:58:20;98789.56;;;3.26;98.37
50364;BME280;36272;59.400;17.982;2023-12-29T20:03:21;98797.72;;;3.24;98.55
50364;BME280;36272;59.400;17.982;2023-12-29T20:08:23;98792.44;;;3.24;98.48
50364;BME280;36272;59.400;17.982;2023-12-29T20:13:24;98803.03;;;3.24;98.61
50364;BME280;36272;59.400;17.982;2023-12-29T20:18:26;98807.28;;;3.25;98.49
50364;BME280;36272;59.400;17.982;2023-12-29T20:23:28;98796.13;;;3.23;98.50
50364;BME280;36272;59.400;17.982;2023-12-29T20:28:30;98814.63;;;3.23;98.43
50364;BME280;36272;59.400;17.982;2023-12-29T20:33:35;98817.84;;;3.25;98.47
50364;BME280;36272;59.400;17.982;2023-12-29T20:38:36;98809.09;;;3.25;98.68
50364;BME280;36272;59.400;17.982;2023-12-29T20:43:38;98824.16;;;3.24;98.36
50364;BME280;36272;59.400;17.982;2023-12-29T20:48:40;98821.53;;;3.24;98.38
50364;BME280;36272;59.400;17.982;2023-12-29T20:53:42;98824.38;;;3.23;98.53
50364;BME280;36272;59.400;17.982;2023-12-29T20:58:44;98827.00;;;3.23;98.51
50364;BME280;36272;59.400;17.982;2023-12-29T21:03:54;98817.25;;;3.23;98.76
50364;BME280;36272;59.400;17.982;2023-12-29T21:08:55;98825.38;;;3.22;98.67
50364;BME280;36272;59.400;17.982;2023-12-29T21:13:59;98819.31;;;3.21;98.50
50364;BME280;36272;59.400;17.982;2023-12-29T21:19:01;98828.25;;;3.20;98.46
50364;BME280;36272;59.400;17.982;2023-12-29T21:24:03;98828.25;;;3.20;98.37
50364;BME280;36272;59.400;17.982;2023-12-29T21:29:05;98827.25;;;3.21;98.61
50364;BME280;36272;59.400;17.982;2023-12-29T21:34:06;98821.38;;;3.19;98.42
50364;BME280;36272;59.400;17.982;2023-12-29T21:39:10;98829.06;;;3.21;98.46
50364;BME280;36272;59.400;17.982;2023-12-29T21:44:14;98835.59;;;3.18;98.50
50364;BME280;36272;59.400;17.982;2023-12-29T21:49:15;98825.22;;;3.17;98.87
50364;BME280;36272;59.400;17.982;2023-12-29T21:54:18;98829.50;;;3.18;98.50
50364;BME280;36272;59.400;17.982;2023-12-29T21:59:20;98839.28;;;3.17;98.38
50364;BME280;36272;59.400;17.982;2023-12-29T22:04:22;98832.13;;;3.18;98.53
50364;BME280;36272;59.400;17.982;2023-12-29T22:09:25;98841.69;;;3.19;98.53
50364;BME280;36272;59.400;17.982;2023-12-29T22:14:28;98842.50;;;3.19;98.59
50364;BME280;36272;59.400;17.982;2023-12-29T22:19:29;98840.88;;;3.18;98.65
50364;BME280;36272;59.400;17.982;2023-12-29T22:24:31;98846.38;;;3.17;98.75
50364;BME280;36272;59.400;17.982;2023-12-29T22:29:33;98858.19;;;3.14;98.66
50364;BME280;36272;59.400;17.982;2023-12-29T22:34:34;98855.56;;;3.14;98.72
50364;BME280;36272;59.400;17.982;2023-12-29T22:39:36;98854.75;;;3.13;98.65
50364;BME280;36272;59.400;17.982;2023-12-29T22:44:37;98866.31;;;3.12;98.64
50364;BME280;36272;59.400;17.982;2023-12-29T22:49:42;98848.28;;;3.09;98.80
50364;BME280;36272;59.400;17.982;2023-12-29T22:54:44;98859.66;;;3.10;98.80
50364;BME280;36272;59.400;17.982;2023-12-29T22:59:45;98860.25;;;3.12;98.42
50364;BME280;36272;59.400;17.982;2023-12-29T23:04:47;98859.44;;;3.11;98.61
50364;BME280;36272;59.400;17.982;2023-12-29T23:09:49;98854.38;;;3.10;98.65
50364;BME280;36272;59.400;17.982;2023-12-29T23:14:51;98859.91;;;3.08;98.58
50364;BME280;36272;59.400;17.982;2023-12-29T23:19:52;98863.56;;;3.07;98.56
50364;BME280;36272;59.400;17.982;2023-12-29T23:24:54;98862.75;;;3.07;98.65
50364;BME280;36272;59.400;17.982;2023-12-29T23:29:56;98871.09;;;3.04;98.71
50364;BME280;36272;59.400;17.982;2023-12-29T23:34:57;98866.84;;;3.03;98.35
50364;BME280;36272;59.400;17.982;2023-12-29T23:39:59;98883.34;;;2.98;98.61
50364;BME280;36272;59.400;17.982;2023-12-29T23:45:01;98878.25;;;2.96;98.69
50364;BME280;36272;59.400;17.982;2023-12-29T23:50:03;98866.50;;;2.92;98.79
50364;BME280;36272;59.400;17.982;2023-12-29T23:55:05;98867.53;;;2.91;98.96
